KBAXKTVC

Guest
Details From KBAX - HURON CO MEM
To KTVC - CHERRY CAPITAL
Flight Number -
Tags generated
Created
Modified
Stats Distance 126 nm / 233 km
Max Altitude 14,500 ft / 4,420 m
Waypoints 3
Social Downloads 0
Likes 0
Share VATSIM

Download

Looking for another format? Having issues loading an existing format? Contact us
Advertisement - Login to hide

Notes

Basic altitude profile: - Ascent Rate: 500ft/min - Ascent Speed: 120kts - Cruise Altitude: 5000ft - Cruise Speed: 100kts - Descent Rate: 500ft/min - Descent Speed: 120kts Options: - Use NATs: no - Use PACOTS: no - Use low airways: yes - Use high airways: no

Route

KBAX SNOWW KTVC

ID Type Via Altitude Latitude Longitude Leg Dist Tot Dist Heading (true) Name
O KBAX APT - 0 ft / 0 m 43.78063˚ -82.98550˚ - 0 nm - HURON CO MEM
SNOWW FIX - 14,500 ft / 4,420 m 44.09907˚ -83.89027˚ 43 nm 43 nm 296° / 296° -
O KTVC APT - 0 ft / 0 m 44.74175˚ -85.58282˚ 82 nm 125 nm 299° / 297° CHERRY CAPITAL

Altitude Profile

Advertisement - Login to hide

KBAX

Details ICAO KBAX
Name HURON CO MEM
Region United States
Timezone America/Detroit (UTC-5.0)
Stats Elevation 766 ft / 233 m (AMSL)
Location 43.780630° -82.985502°
Runways 2
Magnetic Variation 7.919° W

METAR

KBAX 180155Z AUTO 14004KT 10SM OVC008 M02/M04 A3004 RMK AO2 T10231040

Decode

TAF

Not found

Departure Runways

ID Width Length Bearing (true) Bearing (mag) Surface Threshold Offset Overrun Length
04 75 ft / 23 m 3,496 ft / 1,065 m 28.28° 36.20° Asphalt 300 ft / 91 m 0 ft / 0 m
17 75 ft / 23 m 5,005 ft / 1,525 m 164.82° 172.74° Asphalt 0 ft / 0 m 0 ft / 0 m
22 75 ft / 23 m 3,496 ft / 1,065 m 208.28° 216.20° Asphalt 0 ft / 0 m 0 ft / 0 m
35 75 ft / 23 m 5,005 ft / 1,525 m 344.82° 352.74° Asphalt 0 ft / 0 m 0 ft / 0 m

KTVC

Details ICAO KTVC (TVC)
Name CHERRY CAPITAL
Region United States
Timezone America/Detroit (UTC-5.0)
Stats Elevation 624 ft / 190 m (AMSL)
Location 44.741747° -85.582820°
Runways 2
Magnetic Variation 6.107° W

METAR

KTVC 180153Z VRB04KT 9SM OVC009 M02/M04 A3001 RMK AO2 SLP173 LAST T10221044

Decode

TAF

TAF KTVC 172338Z 1800/1824 13005KT P6SM OVC009 FM180300 VRB03KT 5SM BR OVC007 FM180500 00000KT 3SM BR OVC005 FM181400 22007KT 6SM BR OVC009 FM181700 23007KT P6SM OVC015

Decode

Destination Runways

ID Width Length Bearing (true) Bearing (mag) Surface Threshold Offset Overrun Length
10 151 ft / 46 m 6,484 ft / 1,976 m 93.71° 99.82° Asphalt 0 ft / 0 m 0 ft / 0 m
18 151 ft / 46 m 5,383 ft / 1,641 m 180.15° 186.26° Asphalt 269 ft / 82 m 0 ft / 0 m
28 151 ft / 46 m 6,484 ft / 1,976 m 273.73° 279.84° Asphalt 0 ft / 0 m 0 ft / 0 m
36 151 ft / 46 m 5,383 ft / 1,641 m 0.15° 6.26° Asphalt 0 ft / 0 m 0 ft / 0 m

Approach Navaids

Runway Type Ident Frequency Range Bearing (true) Bearing (mag) Slope Elevation
28 Localiser ITVC 110.70 MHz 18 nm / 33 km 273.71° 279.82° - 624 ft / 190 m (AMSL)
28 Glidescope ITVC 110.70 MHz 10 nm / 19 km 273.72° 279.83° 3.00° 611 ft / 186 m (AMSL)

Popular Alternatives